Time;durP1;ratioP1;P1;durP2;ratioP2;P2;SDS_P1;SDS_P2;PMS_P1;PMS_P2;Temp;Humidity;BMP_temperature;BMP_pressure;BME280_temperature;BME280_humidity;BME280_pressure;Samples;Min_cycle;Max_cycle;Signal;HPM_P1;HPM_P2
2023/09/29 00:00:51;;;;;;;5.75;2.30;;;;;;;15.75;62.35;95246.69;5086815;28;20055;-72
2023/09/29 00:03:17;;;;;;;10.50;2.40;;;;;;;15.73;62.48;95256.50;5072430;28;20490;-72
2023/09/29 00:05:45;;;;;;;3.30;2.15;;;;;;;15.76;62.45;95246.53;5085997;28;20031;-72
2023/09/29 00:08:16;;;;;;;3.90;2.22;;;;;;;15.75;62.12;95251.94;5089915;28;20390;-73
2023/09/29 00:10:42;;;;;;;;;;;;;;;15.58;62.80;95251.72;5072325;28;20050;-72
2023/09/29 00:13:07;;;;;;;4.00;2.13;;;;;;;15.61;62.84;95250.63;5089303;28;20440;-72
2023/09/29 00:15:33;;;;;;;5.05;2.40;;;;;;;15.45;63.19;95242.56;5089319;28;20039;-72
2023/09/29 00:18:01;;;;;;;3.90;2.22;;;;;;;15.40;63.23;95261.31;5079762;28;20415;-72
2023/09/29 00:20:27;;;;;;;5.78;2.38;;;;;;;15.51;62.28;95250.66;5088251;28;20107;-72
2023/09/29 00:22:53;;;;;;;7.13;2.40;;;;;;;15.32;63.16;95248.13;5089769;28;20039;-72
2023/09/29 00:25:19;;;;;;;5.93;2.20;;;;;;;15.44;62.97;95243.56;5089334;28;20024;-72
2023/09/29 00:27:48;;;;;;;7.18;2.30;;;;;;;15.28;63.53;95239.75;5065596;28;20046;-73
2023/09/29 00:30:14;;;;;;;4.10;2.00;;;;;;;15.24;63.78;95245.41;5080722;28;20094;-73
2023/09/29 00:32:46;;;;;;;3.78;2.28;;;;;;;15.07;64.00;95247.00;5074641;28;20475;-72
2023/09/29 00:35:19;;;;;;;3.58;2.08;;;;;;;14.97;64.41;95239.22;5078553;28;20029;-72
2023/09/29 00:37:45;;;;;;;5.68;2.50;;;;;;;14.85;64.97;95251.66;5076736;28;20031;-73
2023/09/29 00:40:14;;;;;;;6.93;2.42;;;;;;;14.64;64.85;95236.16;5069305;28;20508;-72
2023/09/29 00:42:41;;;;;;;5.10;2.40;;;;;;;14.62;65.43;95245.91;5069591;28;20029;-73
2023/09/29 00:45:07;;;;;;;6.03;2.50;;;;;;;14.62;65.56;95255.56;5081337;28;20023;-72
2023/09/29 00:47:33;;;;;;;4.43;1.90;;;;;;;14.50;65.52;95242.63;5089185;28;20028;-73
2023/09/29 00:49:58;;;;;;;5.43;2.58;;;;;;;14.68;65.00;95249.75;5070984;28;20051;-72
2023/09/29 00:52:24;;;;;;;6.20;2.53;;;;;;;14.47;65.85;95245.50;5089279;28;20042;-73
2023/09/29 00:54:51;;;;;;;5.82;2.20;;;;;;;14.34;65.96;95246.75;5087062;28;20028;-73
2023/09/29 00:57:16;;;;;;;6.82;2.42;;;;;;;14.34;65.84;95241.53;5086527;28;20040;-72
2023/09/29 00:59:42;;;;;;;4.30;2.38;;;;;;;14.31;65.80;95246.06;5088982;28;20059;-73
2023/09/29 01:02:10;;;;;;;4.93;2.25;;;;;;;14.09;66.45;95228.91;5069951;28;20074;-73
2023/09/29 01:04:35;;;;;;;4.53;2.53;;;;;;;14.14;65.82;95231.09;5069458;28;20024;-72
2023/09/29 01:07:07;;;;;;;6.57;2.53;;;;;;;14.18;65.67;95248.16;5070666;28;20421;-72
2023/09/29 01:09:32;;;;;;;4.50;2.13;;;;;;;14.13;65.38;95234.69;5067099;28;20028;-72
2023/09/29 01:11:59;;;;;;;8.15;2.70;;;;;;;13.89;66.37;95236.88;5070682;28;20028;-72
2023/09/29 01:14:25;;;;;;;7.45;2.85;;;;;;;13.86;66.39;95254.47;5084879;28;20413;-73
2023/09/29 01:16:51;;;;;;;4.10;2.70;;;;;;;13.92;66.18;95253.09;5052324;28;20040;-72
2023/09/29 01:19:17;;;;;;;5.78;2.45;;;;;;;13.87;65.97;95247.47;5080294;28;20035;-72
2023/09/29 01:21:46;;;;;;;9.52;2.40;;;;;;;13.50;66.80;95232.44;5089398;28;20413;-72
2023/09/29 01:24:11;;;;;;;4.63;2.40;;;;;;;13.76;66.80;95245.81;5087435;28;20074;-73
2023/09/29 01:26:37;;;;;;;3.88;2.40;;;;;;;13.66;66.85;95242.38;5092927;28;20033;-73
2023/09/29 01:29:03;;;;;;;4.93;2.45;;;;;;;13.66;66.89;95237.16;5090677;28;20309;-72
2023/09/29 01:31:29;;;;;;;4.38;2.45;;;;;;;13.66;67.16;95249.38;5088031;28;20581;-72
2023/09/29 01:33:54;;;;;;;7.70;2.30;;;;;;;13.61;67.32;95234.94;5091705;28;20028;-72
2023/09/29 01:36:20;;;;;;;4.05;2.10;;;;;;;13.70;67.81;95251.56;5090365;28;20521;-72
2023/09/29 01:38:45;;;;;;;6.90;2.35;;;;;;;13.71;68.01;95250.63;5072578;28;20086;-72
2023/09/29 01:41:13;;;;;;;7.63;2.80;;;;;;;13.60;67.67;95238.50;5078906;28;20093;-72
2023/09/29 01:43:39;;;;;;;7.70;2.78;;;;;;;13.60;68.07;95248.13;5091562;28;20063;-72
2023/09/29 01:46:04;;;;;;;6.95;2.50;;;;;;;13.67;67.90;95243.19;5075385;28;20476;-72
2023/09/29 01:48:30;;;;;;;3.95;2.17;;;;;;;13.66;67.79;95244.16;5091533;28;20036;-72
2023/09/29 01:50:55;;;;;;;8.13;2.50;;;;;;;13.62;67.88;95251.41;5091935;28;20499;-72
2023/09/29 01:53:21;;;;;;;4.13;2.47;;;;;;;13.52;68.02;95229.72;5091326;28;20081;-72
2023/09/29 01:55:46;;;;;;;7.20;2.58;;;;;;;13.71;67.72;95255.84;5091768;28;20024;-72
2023/09/29 01:58:12;;;;;;;6.70;2.50;;;;;;;13.83;67.62;95254.75;5047702;28;20036;-72
2023/09/29 02:00:38;;;;;;;5.78;2.47;;;;;;;13.84;66.69;95253.78;5090206;28;20489;-72
2023/09/29 02:03:06;;;;;;;4.22;2.30;;;;;;;13.69;65.67;95251.72;5092355;28;20036;-72
2023/09/29 02:05:31;;;;;;;5.05;2.30;;;;;;;13.64;66.41;95242.50;5089440;28;20032;-72
2023/09/29 02:07:58;;;;;;;7.85;2.40;;;;;;;13.57;66.52;95244.00;5092116;28;20029;-73
2023/09/29 02:10:24;;;;;;;5.25;2.25;;;;;;;13.77;66.65;95254.47;5090631;28;20059;-72
2023/09/29 02:12:57;;;;;;;8.48;2.95;;;;;;;13.73;66.83;95253.91;5091366;28;20063;-73
2023/09/29 02:15:24;;;;;;;6.65;2.65;;;;;;;13.84;66.80;95248.56;5086435;28;20035;-72
2023/09/29 02:17:50;;;;;;;5.03;2.47;;;;;;;13.90;67.09;95252.44;5065755;28;20486;-72
2023/09/29 02:20:17;;;;;;;3.88;2.25;;;;;;;13.72;66.69;95254.06;5075567;28;20024;-72
2023/09/29 02:22:43;;;;;;;6.00;2.72;;;;;;;13.68;66.33;95235.22;5092591;28;20044;-73
2023/09/29 02:25:10;;;;;;;5.60;2.60;;;;;;;13.74;66.37;95242.50;5092080;28;20307;-74
2023/09/29 02:27:36;;;;;;;4.65;2.72;;;;;;;13.71;66.29;95249.81;5058836;28;20047;-73
2023/09/29 02:30:01;;;;;;;4.63;2.30;;;;;;;13.75;66.12;95241.53;5071816;28;20033;-72
2023/09/29 02:32:26;;;;;;;3.72;2.33;;;;;;;13.58;66.67;95239.59;5089396;28;20028;-72
2023/09/29 02:34:55;;;;;;;6.28;2.83;;;;;;;13.61;67.11;95245.38;5091259;28;20066;-72
2023/09/29 02:37:21;;;;;;;4.53;2.28;;;;;;;13.70;67.04;95251.56;5092364;28;20028;-72
2023/09/29 02:39:46;;;;;;;4.75;2.50;;;;;;;13.72;67.09;95265.31;5071097;28;20579;-72
2023/09/29 02:42:12;;;;;;;7.63;2.63;;;;;;;13.81;66.40;95267.09;5070469;28;20046;-72
2023/09/29 02:44:38;;;;;;;4.28;2.45;;;;;;;13.84;66.68;95263.41;5070402;28;20402;-72
2023/09/29 02:47:03;;;;;;;7.30;2.92;;;;;;;13.85;66.54;95272.91;5085168;28;20033;-72
2023/09/29 02:49:30;;;;;;;4.07;2.30;;;;;;;13.80;66.80;95270.69;5091994;28;20035;-73
2023/09/29 02:51:55;;;;;;;7.20;2.72;;;;;;;13.67;66.78;95267.50;5091927;28;20040;-72
2023/09/29 02:54:21;;;;;;;6.70;2.67;;;;;;;13.72;66.70;95277.56;5092024;28;20035;-73
2023/09/29 02:56:46;;;;;;;4.18;2.50;;;;;;;14.05;66.76;95273.75;5091918;28;20020;-72
2023/09/29 02:59:12;;;;;;;5.22;2.75;;;;;;;14.00;66.54;95273.31;5091685;28;20032;-72
2023/09/29 03:01:38;;;;;;;6.32;2.60;;;;;;;13.72;66.92;95251.44;5092816;28;20037;-72
2023/09/29 03:04:04;;;;;;;5.85;2.88;;;;;;;13.80;67.18;95262.84;5091716;28;20027;-73
2023/09/29 03:06:30;;;;;;;3.92;2.28;;;;;;;13.86;67.05;95277.97;5090897;28;20030;-72
2023/09/29 03:08:58;;;;;;;5.25;2.65;;;;;;;13.82;67.02;95275.78;5091404;28;20486;-72
2023/09/29 03:11:24;;;;;;;8.25;2.72;;;;;;;13.73;67.27;95279.19;5048933;28;20047;-72
2023/09/29 03:13:50;;;;;;;3.60;2.38;;;;;;;13.47;68.04;95268.44;5054727;28;20027;-72
2023/09/29 03:16:18;;;;;;;4.57;2.50;;;;;;;13.38;68.22;95268.28;5055258;28;20111;-72
2023/09/29 03:18:43;;;;;;;6.55;2.83;;;;;;;13.48;68.36;95280.50;5071125;28;20032;-73
2023/09/29 03:21:09;;;;;;;4.18;2.70;;;;;;;13.30;67.75;95252.44;5072439;28;20029;-73
2023/09/29 03:23:35;;;;;;;7.07;2.55;;;;;;;13.50;67.10;95279.41;5071164;28;20024;-72
2023/09/29 03:26:04;;;;;;;4.78;2.53;;;;;;;13.66;66.07;95259.81;5083020;28;20028;-72
2023/09/29 03:28:30;;;;;;;4.53;2.47;;;;;;;13.70;66.34;95254.19;5074221;28;20417;-72
2023/09/29 03:30:56;;;;;;;5.50;2.60;;;;;;;13.79;66.01;95262.97;5056668;28;20021;-72
2023/09/29 03:33:21;;;;;;;7.45;2.60;;;;;;;13.79;66.03;95274.28;5054557;28;20043;-72
2023/09/29 03:35:47;;;;;;;6.75;2.28;;;;;;;13.80;65.34;95262.84;5071056;28;20402;-72
2023/09/29 03:38:14;;;;;;;11.68;2.63;;;;;;;13.84;65.41;95272.06;5054221;28;20422;-72
2023/09/29 03:40:44;;;;;;;6.47;2.13;;;;;;;13.93;64.24;95273.06;5071187;28;20375;-73
2023/09/29 03:43:09;;;;;;;5.30;2.77;;;;;;;13.97;64.57;95281.44;5072092;28;20509;-72
2023/09/29 03:45:36;;;;;;;8.20;2.83;;;;;;;14.02;64.29;95274.84;5081010;28;20039;-72
2023/09/29 03:48:03;;;;;;;6.30;2.50;;;;;;;13.90;64.24;95280.31;5070738;28;20032;-72
2023/09/29 03:50:28;;;;;;;5.97;2.60;;;;;;;13.86;64.67;95274.53;5072186;28;20033;-72
2023/09/29 03:52:54;;;;;;;5.32;2.55;;;;;;;13.80;63.71;95270.69;5070474;28;20040;-73
2023/09/29 03:55:19;;;;;;;4.65;2.35;;;;;;;13.78;64.13;95266.56;5071656;28;20021;-73
2023/09/29 03:57:45;;;;;;;7.63;2.42;;;;;;;13.68;64.66;95256.13;5071744;28;20494;-73
2023/09/29 04:00:12;;;;;;;4.82;2.80;;;;;;;13.88;64.03;95274.41;5071555;28;20122;-73
2023/09/29 04:02:40;;;;;;;7.68;2.42;;;;;;;13.00;66.37;95234.19;5037786;28;20568;-73
2023/09/29 04:05:05;;;;;;;5.38;2.58;;;;;;;13.45;66.36;95275.56;5078171;28;20047;-72
2023/09/29 04:07:30;;;;;;;4.35;3.08;;;;;;;13.39;67.49;95272.53;5061692;28;20037;-73
2023/09/29 04:09:56;;;;;;;4.05;2.88;;;;;;;13.39;67.48;95276.91;5087020;28;20456;-73
2023/09/29 04:12:22;;;;;;;7.32;3.25;;;;;;;13.29;67.58;95282.13;5070672;28;20033;-73
2023/09/29 04:14:47;;;;;;;7.45;2.60;;;;;;;13.34;67.26;95259.03;5071762;28;20029;-73
2023/09/29 04:17:13;;;;;;;5.15;2.97;;;;;;;13.38;66.95;95278.72;5087480;28;20039;-72
2023/09/29 04:19:38;;;;;;;5.13;2.65;;;;;;;13.38;66.58;95275.28;5091532;28;20024;-73
2023/09/29 04:22:04;;;;;;;6.60;2.50;;;;;;;13.33;66.59;95252.19;5073001;28;20040;-73
2023/09/29 04:24:29;;;;;;;6.35;2.58;;;;;;;13.31;66.73;95264.53;5070139;28;20482;-73
2023/09/29 04:26:55;;;;;;;4.32;2.78;;;;;;;13.19;67.01;95276.00;5069991;28;20490;-72
2023/09/29 04:29:21;;;;;;;5.10;2.45;;;;;;;13.06;66.99;95281.44;5071800;28;20043;-73
2023/09/29 04:31:46;;;;;;;5.55;2.50;;;;;;;12.84;67.38;95256.38;5067219;28;20123;-72
2023/09/29 04:34:12;;;;;;;11.27;2.90;;;;;;;12.95;67.81;95274.53;5073149;28;20039;-72
2023/09/29 04:36:37;;;;;;;4.65;2.60;;;;;;;13.01;67.88;95278.41;5081750;28;20434;-73
2023/09/29 04:39:02;;;;;;;4.68;2.60;;;;;;;13.08;67.85;95270.88;5070943;28;20021;-72
2023/09/29 04:41:29;;;;;;;6.40;2.70;;;;;;;13.13;68.32;95269.53;5069863;28;20039;-73
2023/09/29 04:43:55;;;;;;;12.48;2.58;;;;;;;13.06;67.63;95281.44;5078027;28;20042;-73
2023/09/29 04:46:20;;;;;;;9.05;2.70;;;;;;;13.16;67.76;95284.09;5089912;28;20035;-72
2023/09/29 04:48:46;;;;;;;5.82;2.78;;;;;;;13.17;67.63;95293.56;5091096;28;20543;-73
2023/09/29 04:51:11;;;;;;;5.70;2.97;;;;;;;13.18;67.36;95292.63;5072509;28;20066;-73
2023/09/29 04:53:37;;;;;;;5.18;2.72;;;;;;;13.07;67.82;95297.94;5091211;28;20035;-72
2023/09/29 04:56:02;;;;;;;6.43;2.92;;;;;;;13.09;68.23;95302.06;5073152;28;20028;-73
2023/09/29 04:58:28;;;;;;;6.20;3.25;;;;;;;13.09;68.05;95302.06;5088419;28;20089;-73
2023/09/29 05:00:53;;;;;;;7.07;2.55;;;;;;;13.18;67.72;95306.47;5083519;28;20048;-73
2023/09/29 05:03:18;;;;;;;8.05;2.58;;;;;;;13.20;67.64;95303.72;5054190;28;20039;-73
2023/09/29 05:05:46;;;;;;;4.20;2.55;;;;;;;13.45;67.23;95315.53;5089835;28;20054;-73
2023/09/29 05:08:11;;;;;;;5.10;2.60;;;;;;;13.37;67.21;95317.97;5090805;28;20042;-73
2023/09/29 05:10:37;;;;;;;8.13;2.97;;;;;;;13.39;67.55;95314.28;5088768;28;20035;-72
2023/09/29 05:13:02;;;;;;;8.77;2.85;;;;;;;13.55;67.17;95312.97;5072668;28;20482;-72
2023/09/29 05:15:28;;;;;;;5.15;3.00;;;;;;;13.73;66.80;95305.28;5089139;28;20093;-73
2023/09/29 05:17:53;;;;;;;11.35;3.35;;;;;;;13.52;66.82;95297.56;5056630;28;20040;-73
2023/09/29 05:20:19;;;;;;;7.55;3.20;;;;;;;13.46;67.59;95303.31;5074338;28;20040;-73
2023/09/29 05:22:44;;;;;;;7.32;2.97;;;;;;;13.68;67.23;95307.47;5082870;28;20041;-73
2023/09/29 05:25:09;;;;;;;9.68;3.95;;;;;;;13.49;68.27;95308.28;5070930;28;20036;-73
2023/09/29 05:27:35;;;;;;;12.88;4.40;;;;;;;13.45;68.32;95312.09;5068878;28;20043;-73
2023/09/29 05:30:02;;;;;;;7.75;3.53;;;;;;;13.72;67.55;95314.91;5081669;28;20048;-73
2023/09/29 05:32:28;;;;;;;13.02;4.95;;;;;;;13.68;67.55;95315.31;5063622;28;20040;-73
2023/09/29 05:34:53;;;;;;;11.80;4.20;;;;;;;13.62;67.45;95324.50;5077118;28;20032;-73
2023/09/29 05:37:18;;;;;;;14.07;4.45;;;;;;;13.80;66.36;95309.84;5084809;28;20453;-73
2023/09/29 05:39:44;;;;;;;9.85;3.70;;;;;;;13.81;66.28;95321.94;5088743;28;21171;-73
2023/09/29 05:42:10;;;;;;;9.65;4.22;;;;;;;13.85;66.06;95327.75;5085443;28;20093;-73
2023/09/29 05:44:36;;;;;;;11.88;4.38;;;;;;;14.18;65.32;95313.50;5082839;28;20082;-73
2023/09/29 05:47:02;;;;;;;13.05;3.85;;;;;;;14.70;63.41;95315.81;5081882;28;20641;-73
2023/09/29 05:49:27;;;;;;;11.20;4.18;;;;;;;14.90;63.21;95316.59;5078077;28;20086;-73
2023/09/29 05:51:53;;;;;;;7.90;3.85;;;;;;;15.50;61.32;95316.28;5076744;28;20448;-73
2023/09/29 05:54:18;;;;;;;11.02;4.15;;;;;;;15.70;59.84;95309.16;5062031;28;20029;-73
2023/09/29 05:56:43;;;;;;;9.60;4.53;;;;;;;16.01;59.14;95310.47;5079321;28;20039;-73
2023/09/29 05:59:09;;;;;;;8.85;4.22;;;;;;;16.81;57.00;95309.75;5078512;28;20081;-74
2023/09/29 06:01:34;;;;;;;11.70;4.22;;;;;;;17.73;53.38;95309.06;5061299;28;20041;-73
2023/09/29 06:04:00;;;;;;;7.88;3.35;;;;;;;18.43;52.60;95311.38;5078308;28;20028;-71
2023/09/29 06:06:25;;;;;;;8.57;3.80;;;;;;;18.85;50.48;95314.88;5080315;28;20508;-73
2023/09/29 06:08:51;;;;;;;8.68;3.45;;;;;;;19.60;48.97;95304.00;5085498;28;20039;-77
2023/09/29 06:11:16;;;;;;;10.35;3.53;;;;;;;20.43;47.64;95300.78;5084376;28;20032;-74
2023/09/29 06:13:44;;;;;;;13.20;3.97;;;;;;;21.06;46.30;95303.25;5064372;28;20033;-75
2023/09/29 06:16:10;;;;;;;10.93;3.70;;;;;;;20.86;46.30;95293.19;5074516;28;20032;-72
2023/09/29 06:18:35;;;;;;;16.10;4.10;;;;;;;20.98;45.39;95304.16;5069680;28;20044;-70
2023/09/29 06:21:00;;;;;;;8.82;3.63;;;;;;;21.71;44.20;95310.50;5089573;28;20043;-70
2023/09/29 06:23:26;;;;;;;7.25;3.05;;;;;;;21.86;43.11;95308.66;5066420;28;20039;-70
2023/09/29 06:26:01;;;;;;;11.63;3.30;;;;;;;21.93;42.61;95315.88;5067892;28;20115;-69
2023/09/29 06:28:27;;;;;;;9.82;3.42;;;;;;;22.38;41.92;95292.78;5089269;28;20162;-68
2023/09/29 06:30:54;;;;;;;8.48;3.40;;;;;;;22.93;40.25;95299.19;5089807;28;20095;-69
2023/09/29 06:33:20;;;;;;;9.27;2.75;;;;;;;23.70;39.15;95298.25;5090941;28;20317;-69
2023/09/29 06:35:45;;;;;;;6.07;3.08;;;;;;;24.21;37.69;95291.75;5084479;28;20044;-69
2023/09/29 06:38:11;;;;;;;13.05;3.25;;;;;;;24.37;37.82;95286.06;5075097;28;20044;-69
2023/09/29 06:40:36;;;;;;;8.13;3.00;;;;;;;24.90;35.25;95295.97;5089621;28;20047;-68
2023/09/29 06:43:02;;;;;;;15.32;2.58;;;;;;;25.17;35.46;95302.94;5083174;28;20032;-68
2023/09/29 06:45:30;;;;;;;5.95;2.40;;;;;;;24.90;35.04;95298.63;5092042;28;20032;-68
2023/09/29 06:47:55;;;;;;;10.88;2.42;;;;;;;24.88;35.67;95292.72;5075519;28;20028;-68
2023/09/29 06:50:21;;;;;;;8.93;2.50;;;;;;;24.72;36.72;95297.41;5078645;28;20501;-68
2023/09/29 06:52:46;;;;;;;13.35;2.95;;;;;;;25.03;37.00;95297.81;5081495;28;20068;-70
2023/09/29 06:55:13;;;;;;;8.95;2.42;;;;;;;25.03;34.49;95295.97;5075157;28;20275;-69
2023/09/29 06:57:39;;;;;;;8.20;2.83;;;;;;;24.85;35.71;95296.59;5086365;28;20032;-70
2023/09/29 07:00:06;;;;;;;10.27;2.50;;;;;;;24.55;36.94;95301.47;5087004;28;20548;-69
2023/09/29 07:02:32;;;;;;;7.28;2.95;;;;;;;24.13;35.58;95294.63;5082962;28;20528;-69
2023/09/29 07:04:57;;;;;;;5.93;2.40;;;;;;;23.49;36.64;95307.16;5074267;28;20048;-69
2023/09/29 07:07:23;;;;;;;12.90;2.92;;;;;;;22.77;37.50;95275.63;5092285;28;20028;-70
2023/09/29 07:09:48;;;;;;;8.45;2.70;;;;;;;22.97;38.06;95303.09;5089972;28;20486;-70
2023/09/29 07:12:14;;;;;;;9.77;3.63;;;;;;;23.02;39.02;95298.06;5091352;28;20035;-69
2023/09/29 07:14:39;;;;;;;11.68;3.85;;;;;;;22.51;40.68;95304.31;5071280;28;20028;-69
2023/09/29 07:17:05;;;;;;;7.13;3.30;;;;;;;22.47;40.23;95281.06;5065738;28;20024;-69
2023/09/29 07:19:32;;;;;;;17.33;3.25;;;;;;;22.66;39.70;95293.66;5078587;28;20024;-69
2023/09/29 07:21:57;;;;;;;11.13;3.10;;;;;;;22.93;39.16;95302.66;5090858;28;20046;-69
2023/09/29 07:24:26;;;;;;;7.85;2.88;;;;;;;22.68;39.49;95310.19;5087984;28;20126;-69
2023/09/29 07:26:51;;;;;;;11.63;3.30;;;;;;;22.56;40.06;95306.38;5092217;28;20111;-69
2023/09/29 07:29:18;;;;;;;10.70;3.40;;;;;;;22.57;40.20;95307.22;5069149;28;20462;-68
2023/09/29 07:31:48;;;;;;;8.93;3.53;;;;;;;22.67;39.74;95305.88;5078877;28;20111;-68
2023/09/29 07:34:15;;;;;;;16.00;3.57;;;;;;;22.18;40.77;95311.91;5076459;28;20090;-68
2023/09/29 07:36:43;;;;;;;14.52;3.67;;;;;;;22.07;40.98;95317.66;5069358;28;20036;-68
2023/09/29 07:39:08;;;;;;;12.10;3.72;;;;;;;22.09;40.63;95311.19;5088776;28;20031;-68
2023/09/29 07:41:34;;;;;;;15.95;3.85;;;;;;;21.72;40.95;95325.34;5089394;28;20409;-68
2023/09/29 07:43:59;;;;;;;15.02;3.50;;;;;;;21.65;41.06;95324.47;5087560;28;20036;-68
2023/09/29 07:46:25;;;;;;;12.73;3.90;;;;;;;21.41;42.29;95328.19;5081693;28;20055;-69
2023/09/29 07:48:50;;;;;;;10.55;3.90;;;;;;;21.37;42.06;95326.94;5078010;28;20025;-67
2023/09/29 07:51:16;;;;;;;12.80;4.07;;;;;;;21.41;41.82;95313.16;5054705;28;20616;-69
2023/09/29 07:53:41;;;;;;;9.90;3.13;;;;;;;21.75;41.42;95319.69;5089657;28;20028;-67
2023/09/29 07:56:07;;;;;;;17.17;3.70;;;;;;;21.71;41.21;95323.72;5075170;28;20031;-68
2023/09/29 07:58:32;;;;;;;10.82;3.65;;;;;;;21.95;40.51;95319.13;5086025;28;20153;-69
2023/09/29 08:00:57;;;;;;;10.50;3.55;;;;;;;21.86;42.24;95326.34;5081309;28;20048;-67
2023/09/29 08:03:23;;;;;;;13.20;3.80;;;;;;;21.90;40.94;95321.50;5080615;28;20028;-69
2023/09/29 08:05:49;;;;;;;7.55;4.13;;;;;;;21.88;40.30;95315.59;5071947;28;20078;-69
2023/09/29 08:08:14;;;;;;;8.02;3.67;;;;;;;21.89;37.91;95307.47;5074221;28;20028;-68
2023/09/29 08:10:41;;;;;;;10.35;3.47;;;;;;;21.96;37.02;95311.03;5077024;28;20032;-69
2023/09/29 08:13:07;;;;;;;7.20;2.70;;;;;;;22.48;36.59;95303.84;5059936;28;20058;-69
2023/09/29 08:15:32;;;;;;;9.27;2.85;;;;;;;22.92;33.16;95311.59;5087753;28;20371;-68
2023/09/29 08:17:58;;;;;;;9.60;3.20;;;;;;;22.32;33.88;95309.41;5090320;28;20409;-68
2023/09/29 08:20:23;;;;;;;9.45;3.17;;;;;;;22.40;34.30;95312.75;5087758;28;20024;-69
2023/09/29 08:22:48;;;;;;;10.50;2.30;;;;;;;22.13;32.39;95305.50;5089884;28;20024;-68
2023/09/29 08:25:14;;;;;;;6.22;2.38;;;;;;;22.08;32.36;95295.47;5088758;28;20039;-69
2023/09/29 08:27:39;;;;;;;4.22;2.10;;;;;;;22.11;32.98;95310.16;5089120;28;20024;-68
2023/09/29 08:30:06;;;;;;;6.97;2.20;;;;;;;22.08;32.04;95314.81;5084598;28;20043;-67
2023/09/29 08:32:32;;;;;;;5.15;2.42;;;;;;;22.08;32.86;95300.78;5089392;28;20031;-67
2023/09/29 08:34:58;;;;;;;11.50;2.83;;;;;;;21.63;33.59;95273.59;5079511;28;20072;-67
2023/09/29 08:37:23;;;;;;;8.27;2.72;;;;;;;21.80;33.70;95317.31;5081717;28;20070;-67
2023/09/29 08:39:50;;;;;;;7.18;2.65;;;;;;;21.70;33.38;95306.19;5083003;28;20063;-67
2023/09/29 08:42:37;;;;;;;7.05;2.38;;;;;;;21.69;33.46;95316.97;5088902;28;20054;-67
2023/09/29 08:45:12;;;;;;;6.88;2.47;;;;;;;21.92;33.53;95301.00;5078712;28;20044;-68
2023/09/29 08:47:38;;;;;;;10.82;2.55;;;;;;;22.22;34.32;95307.88;5055738;28;20024;-68
2023/09/29 08:50:04;;;;;;;8.65;2.80;;;;;;;22.09;34.97;95307.69;5065102;28;20032;-68
2023/09/29 08:52:29;;;;;;;8.63;2.58;;;;;;;22.04;33.10;95304.81;5072693;28;20032;-68
2023/09/29 08:54:55;;;;;;;6.90;2.45;;;;;;;21.91;32.65;95315.22;5070731;28;20024;-68
2023/09/29 08:57:20;;;;;;;6.78;2.47;;;;;;;22.10;32.69;95306.72;5072819;28;20035;-69
2023/09/29 08:59:46;;;;;;;7.13;3.65;;;;;;;22.18;33.36;95303.97;5066849;28;20052;-69
2023/09/29 09:02:13;;;;;;;6.57;2.47;;;;;;;22.04;32.71;95299.53;5089751;28;20048;-69
2023/09/29 09:04:38;;;;;;;7.80;2.40;;;;;;;22.24;32.70;95303.22;5087826;28;20105;-68
2023/09/29 09:07:04;;;;;;;4.00;2.38;;;;;;;22.33;32.64;95306.56;5080748;28;20527;-67
2023/09/29 09:09:30;;;;;;;5.53;2.10;;;;;;;22.20;31.67;95303.78;5077706;28;20449;-68
2023/09/29 09:11:56;;;;;;;4.13;1.85;;;;;;;22.55;32.54;95304.75;5083466;28;20066;-68
2023/09/29 09:14:21;;;;;;;6.97;2.20;;;;;;;22.39;32.52;95299.72;5088458;28;20032;-67
2023/09/29 09:16:46;;;;;;;5.07;2.00;;;;;;;22.36;32.56;95300.09;5083645;28;20032;-68
2023/09/29 09:19:13;;;;;;;7.28;2.40;;;;;;;22.21;31.98;95298.31;5086350;28;20035;-67
2023/09/29 09:21:40;;;;;;;6.68;2.13;;;;;;;22.17;31.87;95302.28;5076366;28;20028;-69
2023/09/29 09:24:22;;;;;;;6.22;2.05;;;;;;;22.53;30.85;95298.81;5070984;28;20024;-68
2023/09/29 09:26:47;;;;;;;7.97;2.92;;;;;;;22.51;30.86;95292.88;5090545;28;20043;-68
2023/09/29 09:29:16;;;;;;;4.88;2.10;;;;;;;22.36;31.23;95305.38;5087961;28;20024;-68
2023/09/29 09:31:53;;;;;;;6.68;2.30;;;;;;;22.35;31.30;95299.28;5089502;28;20075;-68
2023/09/29 09:34:19;;;;;;;9.02;2.42;;;;;;;22.58;30.74;95293.78;5088777;28;20025;-68
2023/09/29 09:36:47;;;;;;;5.30;1.90;;;;;;;22.88;30.38;95293.63;5090223;28;20086;-70
2023/09/29 09:39:12;;;;;;;5.80;2.10;;;;;;;22.75;30.57;95291.69;5069773;28;20065;-68
2023/09/29 09:41:38;;;;;;;7.38;2.20;;;;;;;22.70;30.37;95276.38;5087667;28;20464;-68
2023/09/29 09:44:04;;;;;;;4.80;2.35;;;;;;;22.58;30.52;95298.25;5056664;28;20032;-70
2023/09/29 09:46:33;;;;;;;6.07;2.40;;;;;;;22.46;31.06;95298.78;5085292;28;20028;-70
2023/09/29 09:49:08;;;;;;;4.72;2.28;;;;;;;22.44;30.82;95287.53;5091475;28;20254;-70
2023/09/29 09:51:34;;;;;;;5.68;2.90;;;;;;;22.41;30.82;95298.50;5092299;28;20066;-70
2023/09/29 09:54:03;;;;;;;5.80;1.90;;;;;;;22.46;30.87;95295.31;5075759;28;20024;-69
2023/09/29 09:56:45;;;;;;;7.32;2.08;;;;;;;22.54;30.38;95295.19;5092823;28;20067;-69
2023/09/29 09:59:11;;;;;;;5.75;2.22;;;;;;;22.51;31.63;95292.88;5092963;28;20396;-70
2023/09/29 10:01:38;;;;;;;4.72;2.20;;;;;;;22.71;30.62;95291.25;5075674;28;20083;-70
2023/09/29 10:04:05;;;;;;;10.02;2.20;;;;;;;22.53;29.81;95286.41;5090555;28;20065;-69
2023/09/29 10:06:31;;;;;;;7.20;2.58;;;;;;;22.57;29.90;95294.81;5091992;28;20111;-69
2023/09/29 10:09:11;;;;;;;5.57;2.30;;;;;;;22.62;29.44;95283.63;5090360;28;20020;-70
2023/09/29 10:11:37;;;;;;;6.23;2.30;;;;;;;22.50;30.44;95288.63;5075509;28;20497;-69
2023/09/29 10:14:04;;;;;;;10.02;2.20;;;;;;;22.67;29.24;95284.69;5091912;28;20031;-70
2023/09/29 10:16:31;;;;;;;7.80;2.53;;;;;;;22.16;28.73;95197.50;5092143;28;20145;-69
2023/09/29 10:19:00;;;;;;;6.40;2.25;;;;;;;22.61;30.94;95285.47;5092718;28;20035;-69
2023/09/29 10:21:28;;;;;;;5.50;2.60;;;;;;;22.72;30.05;95271.72;5092918;28;20032;-70
2023/09/29 10:23:53;;;;;;;6.13;2.40;;;;;;;22.61;29.84;95269.56;5076163;28;20032;-69
2023/09/29 10:26:20;;;;;;;4.53;2.78;;;;;;;22.72;29.73;95265.59;5093769;28;20146;-69
2023/09/29 10:28:46;;;;;;;6.60;2.80;;;;;;;22.77;30.05;95263.19;5093735;28;20034;-69
2023/09/29 10:31:15;;;;;;;9.60;2.85;;;;;;;22.73;30.29;95272.53;5092460;28;20040;-70
2023/09/29 10:33:53;;;;;;;8.20;2.70;;;;;;;22.65;30.21;95264.72;5076071;28;20020;-70
2023/09/29 10:36:29;;;;;;;5.75;2.50;;;;;;;22.58;30.20;95269.16;5092385;28;20033;-69
2023/09/29 10:38:57;;;;;;;5.32;2.55;;;;;;;22.70;30.64;95257.84;5093561;28;20024;-69
2023/09/29 10:41:24;;;;;;;6.38;2.47;;;;;;;22.47;30.34;95247.47;5092260;28;20036;-69
2023/09/29 10:43:50;;;;;;;8.80;2.40;;;;;;;22.70;30.34;95254.38;5058798;28;20032;-70
2023/09/29 10:46:16;;;;;;;8.82;2.75;;;;;;;22.81;29.30;95243.25;5093605;28;20040;-69
2023/09/29 10:48:50;;;;;;;7.60;2.78;;;;;;;22.79;31.06;95247.09;5075344;28;20467;-69
2023/09/29 10:51:26;;;;;;;5.57;2.45;;;;;;;22.78;31.21;95238.34;5075657;28;20547;-69
2023/09/29 10:53:52;;;;;;;6.75;2.70;;;;;;;22.66;31.42;95226.66;5075349;28;20469;-69
2023/09/29 10:56:21;;;;;;;8.20;2.88;;;;;;;22.70;30.65;95199.59;5092766;28;20039;-70
2023/09/29 10:58:49;;;;;;;5.80;2.83;;;;;;;22.80;31.03;95238.16;5075196;28;20032;-69
2023/09/29 11:01:21;;;;;;;7.85;2.97;;;;;;;22.84;30.83;95226.16;5091964;28;20048;-69
2023/09/29 11:03:48;;;;;;;8.20;2.78;;;;;;;22.90;31.16;95226.22;5093067;28;20031;-70
2023/09/29 11:06:17;;;;;;;5.15;2.90;;;;;;;22.99;31.11;95223.47;5058388;28;20020;-70
2023/09/29 11:08:50;;;;;;;6.63;3.13;;;;;;;22.89;30.68;95221.13;5091733;28;20403;-70
2023/09/29 11:11:17;;;;;;;5.47;2.75;;;;;;;22.86;30.53;95208.25;5091717;28;20032;-69
2023/09/29 11:13:42;;;;;;;9.30;2.80;;;;;;;23.00;30.57;95217.16;5091496;28;20103;-70
2023/09/29 11:16:15;;;;;;;7.97;3.10;;;;;;;23.17;31.25;95207.88;5091574;28;20032;-70
2023/09/29 11:18:41;;;;;;;8.40;3.10;;;;;;;23.32;30.29;95199.81;5074855;28;20027;-69
2023/09/29 11:21:10;;;;;;;7.53;3.10;;;;;;;23.40;30.95;95207.56;5074910;28;20028;-69
2023/09/29 11:23:44;;;;;;;8.13;3.10;;;;;;;23.23;30.70;95171.81;5092744;28;20028;-70
2023/09/29 11:26:12;;;;;;;7.93;2.90;;;;;;;23.49;30.72;95200.28;5092655;28;20032;-69
2023/09/29 11:28:47;;;;;;;6.18;3.10;;;;;;;23.45;30.80;95202.50;5092575;28;20024;-69